Time;durP1;ratioP1;P1;durP2;ratioP2;P2;SDS_P1;SDS_P2;PMS_P1;PMS_P2;Temp;Humidity;BMP_temperature;BMP_pressure;BME280_temperature;BME280_humidity;BME280_pressure;Samples;Min_cycle;Max_cycle;Signal;HPM_P1;HPM_P2
2023/05/20 00:01:52;;;;;;;26.00;4.55;;;;;;;;;;4995333;28;20092;-74
2023/05/20 00:04:18;;;;;;;32.20;5.10;;;;;;;;;;4992797;28;20037;-75
2023/05/20 00:06:43;;;;;;;38.05;5.55;;;;;;;;;;4994266;28;20035;-74
2023/05/20 00:09:08;;;;;;;37.70;4.78;;;;;;;;;;4992714;28;20082;-74
2023/05/20 00:11:34;;;;;;;30.02;5.57;;;;;;;;;;4995423;28;20030;-74
2023/05/20 00:13:59;;;;;;;31.83;5.22;;;;;;;;;;4995692;28;20109;-74
2023/05/20 00:16:25;;;;;;;30.05;5.68;;;;;;;;;;4995503;28;20057;-74
2023/05/20 00:18:50;;;;;;;22.73;5.43;;;;;;;;;;4995268;28;20038;-74
2023/05/20 00:21:15;;;;;;;33.22;5.78;;;;;;;;;;4994060;28;20089;-74
2023/05/20 00:23:41;;;;;;;34.13;4.65;;;;;;;;;;4995408;28;20506;-74
2023/05/20 00:26:06;;;;;;;45.25;4.97;;;;;;;;;;4995133;28;20089;-75
2023/05/20 00:28:31;;;;;;;43.42;5.53;;;;;;;;;;4995343;28;20046;-74
2023/05/20 00:30:57;;;;;;;51.17;4.70;;;;;;;;;;4994031;28;20394;-74
2023/05/20 00:33:22;;;;;;;54.65;5.07;;;;;;;;;;4994981;28;20046;-74
2023/05/20 00:35:47;;;;;;;101.57;6.07;;;;;;;;;;4994936;28;20088;-77
2023/05/20 00:38:13;;;;;;;60.63;4.80;;;;;;;;;;4995349;28;20424;-76
2023/05/20 00:40:38;;;;;;;43.63;4.88;;;;;;;;;;4993350;28;20030;-77
2023/05/20 00:43:04;;;;;;;29.70;4.57;;;;;;;;;;4990800;28;20464;-77
2023/05/20 00:45:29;;;;;;;30.85;4.50;;;;;;;;;;4989750;28;20038;-76
2023/05/20 00:47:58;;;;;;;61.00;4.68;;;;;;;;;;4994130;28;20052;-77
2023/05/20 00:50:23;;;;;;;29.52;4.95;;;;;;;;;;4991842;28;20038;-74
2023/05/20 00:52:50;;;;;;;27.55;4.85;;;;;;;;;;4995040;28;20033;-75
2023/05/20 00:55:15;;;;;;;23.92;4.28;;;;;;;;;;4993487;28;20046;-75
2023/05/20 00:57:41;;;;;;;23.80;4.30;;;;;;;;;;4994089;28;20050;-74
2023/05/20 01:00:07;;;;;;;36.97;4.85;;;;;;;;;;4994274;28;20034;-74
2023/05/20 01:02:32;;;;;;;25.52;5.38;;;;;;;;;;4992255;28;20050;-75
2023/05/20 01:04:58;;;;;;;28.50;4.53;;;;;;;;;;4994402;28;20117;-74
2023/05/20 01:07:24;;;;;;;30.27;5.13;;;;;;;;;;4994707;28;20422;-74
2023/05/20 01:09:51;;;;;;;26.90;4.90;;;;;;;;;;4994321;28;20042;-74
2023/05/20 01:12:21;;;;;;;31.60;5.15;;;;;;;;;;4994594;28;20050;-75
2023/05/20 01:15:10;;;;;;;24.02;4.10;;;;;;;;;;4990067;28;20038;-74
2023/05/20 01:17:38;;;;;;;28.48;4.70;;;;;;;;;;4993359;28;20046;-75
2023/05/20 01:20:08;;;;;;;29.10;5.35;;;;;;;;;;4994194;28;20037;-75
2023/05/20 01:22:36;;;;;;;26.50;4.60;;;;;;;;;;4990507;28;20051;-74
2023/05/20 01:25:01;;;;;;;113.65;7.70;;;;;;;;;;4994528;28;20121;-75
2023/05/20 01:27:29;;;;;;;55.83;6.13;;;;;;;;;;4994256;28;20574;-74
2023/05/20 01:29:54;;;;;;;114.40;6.97;;;;;;;;;;4993974;28;20046;-74
2023/05/20 01:32:31;;;;;;;27.17;4.38;;;;;;;;;;4992914;28;20117;-75
2023/05/20 01:34:57;;;;;;;35.55;4.97;;;;;;;;;;4987496;28;20039;-75
2023/05/20 01:37:24;;;;;;;20.98;5.28;;;;;;;;;;4992970;28;20089;-74
2023/05/20 01:39:52;;;;;;;25.55;5.30;;;;;;;;;;4990603;28;20023;-74
2023/05/20 01:42:18;;;;;;;26.63;4.75;;;;;;;;;;4991629;28;20034;-74
2023/05/20 01:44:43;;;;;;;33.20;5.68;;;;;;;;;;4993891;28;20049;-74
2023/05/20 01:47:09;;;;;;;37.75;5.05;;;;;;;;;;4992873;28;20038;-74
2023/05/20 01:49:35;;;;;;;28.08;5.13;;;;;;;;;;4993762;28;20406;-74
2023/05/20 01:52:00;;;;;;;45.97;5.35;;;;;;;;;;4992672;28;20048;-74
2023/05/20 01:54:25;;;;;;;22.98;4.55;;;;;;;;;;4993455;28;20038;-75
2023/05/20 01:56:51;;;;;;;22.75;4.13;;;;;;;;;;4994141;28;20466;-75
2023/05/20 01:59:17;;;;;;;37.22;5.13;;;;;;;;;;4991491;28;20109;-77
2023/05/20 02:01:42;;;;;;;33.33;5.10;;;;;;;;;;4989812;28;20089;-77
2023/05/20 02:04:07;;;;;;;24.20;4.97;;;;;;;;;;4985744;28;20154;-76
2023/05/20 02:06:33;;;;;;;21.58;5.32;;;;;;;;;;4993656;28;20042;-77
2023/05/20 02:08:58;;;;;;;23.52;4.63;;;;;;;;;;4992254;28;20034;-77
2023/05/20 02:11:24;;;;;;;21.75;5.03;;;;;;;;;;4992465;28;20586;-77
2023/05/20 02:13:50;;;;;;;44.28;6.25;;;;;;;;;;4998416;28;20043;-77
2023/05/20 02:16:16;;;;;;;37.80;6.47;;;;;;;;;;4997952;28;20045;-76
2023/05/20 02:18:41;;;;;;;22.48;5.20;;;;;;;;;;4998333;28;20046;-77
2023/05/20 02:21:07;;;;;;;24.75;5.63;;;;;;;;;;4999694;28;20050;-76
2023/05/20 02:23:32;;;;;;;30.45;5.93;;;;;;;;;;4998683;28;20041;-76
2023/05/20 02:25:58;;;;;;;13.27;4.90;;;;;;;;;;4998081;28;20038;-76
2023/05/20 02:28:23;;;;;;;29.60;6.57;;;;;;;;;;5000197;28;20040;-78
2023/05/20 02:30:51;;;;;;;23.05;5.78;;;;;;;;;;4999744;28;20799;-76
2023/05/20 02:33:18;;;;;;;21.05;5.97;;;;;;;;;;4999704;28;20045;-76
2023/05/20 02:35:43;;;;;;;29.45;5.40;;;;;;;;;;5028064;28;20096;-76
2023/05/20 02:38:10;;;;;;;25.30;5.25;;;;;;;;;;4997146;28;20058;-77
2023/05/20 02:40:35;;;;;;;120.65;7.18;;;;;;;;;;4999698;28;20041;-76
2023/05/20 02:43:01;;;;;;;100.40;7.60;;;;;;;;;;4999513;28;20038;-76
2023/05/20 02:45:27;;;;;;;22.98;5.07;;;;;;;;;;4998581;28;20042;-76
2023/05/20 02:47:52;;;;;;;24.05;5.10;;;;;;;;;;4999894;28;20040;-76
2023/05/20 02:50:17;;;;;;;20.65;4.40;;;;;;;;;;4999533;28;20042;-76
2023/05/20 02:52:44;;;;;;;25.80;5.47;;;;;;;;;;4999970;28;20037;-76
2023/05/20 02:55:10;;;;;;;22.42;5.15;;;;;;;;;;4999790;28;20045;-76
2023/05/20 02:57:37;;;;;;;19.73;5.18;;;;;;;;;;4998104;28;20046;-77
2023/05/20 03:00:09;;;;;;;25.20;5.07;;;;;;;;;;4998745;28;20048;-76
2023/05/20 03:02:35;;;;;;;26.63;5.43;;;;;;;;;;4990174;28;20364;-76
2023/05/20 03:05:01;;;;;;;11.80;4.72;;;;;;;;;;4998322;28;20052;-76
2023/05/20 03:07:26;;;;;;;20.42;5.60;;;;;;;;;;4999429;28;20243;-76
2023/05/20 03:09:52;;;;;;;22.23;5.93;;;;;;;;;;4995189;28;20087;-76
2023/05/20 03:12:18;;;;;;;27.23;5.88;;;;;;;;;;4997357;28;20065;-76
2023/05/20 03:14:43;;;;;;;161.60;10.70;;;;;;;;;;4999386;28;20048;-76
2023/05/20 03:17:09;;;;;;;77.10;7.65;;;;;;;;;;4999853;28;20030;-76
2023/05/20 03:19:34;;;;;;;24.88;5.10;;;;;;;;;;4997973;28;20045;-76
2023/05/20 03:22:00;;;;;;;39.58;6.82;;;;;;;;;;4999683;28;20033;-76
2023/05/20 03:24:26;;;;;;;25.98;5.47;;;;;;;;;;4995993;28;20463;-77
2023/05/20 03:26:52;;;;;;;31.63;6.03;;;;;;;;;;4995390;28;20038;-76
2023/05/20 03:29:17;;;;;;;12.25;5.35;;;;;;;;;;4995027;28;20030;-77
2023/05/20 03:31:43;;;;;;;29.45;5.78;;;;;;;;;;4995907;28;20445;-76
2023/05/20 03:34:08;;;;;;;34.53;5.18;;;;;;;;;;4991710;28;20042;-76
2023/05/20 03:36:33;;;;;;;19.88;4.75;;;;;;;;;;4996011;28;20092;-76
2023/05/20 03:39:00;;;;;;;35.17;5.40;;;;;;;;;;4995337;28;20053;-77
2023/05/20 03:41:25;;;;;;;25.90;5.18;;;;;;;;;;4994767;28;20069;-77
2023/05/20 03:43:51;;;;;;;170.57;11.00;;;;;;;;;;4996160;28;20038;-76
2023/05/20 03:46:16;;;;;;;143.75;10.52;;;;;;;;;;4996011;28;20034;-76
2023/05/20 03:48:41;;;;;;;174.07;10.15;;;;;;;;;;4996095;28;20466;-76
2023/05/20 03:51:07;;;;;;;47.65;6.10;;;;;;;;;;4995818;28;20041;-76
2023/05/20 03:53:32;;;;;;;20.90;4.88;;;;;;;;;;4996014;28;20022;-75
2023/05/20 03:55:58;;;;;;;17.52;5.10;;;;;;;;;;4995741;28;20045;-76
2023/05/20 03:58:24;;;;;;;19.58;5.13;;;;;;;;;;4995756;28;20046;-76
2023/05/20 04:00:49;;;;;;;46.60;6.30;;;;;;;;;;4995807;28;20034;-76
2023/05/20 04:03:14;;;;;;;27.35;5.15;;;;;;;;;;4995676;28;20042;-76
2023/05/20 04:05:40;;;;;;;105.63;9.60;;;;;;;;;;4991516;28;20034;-76
2023/05/20 04:08:05;;;;;;;18.15;5.03;;;;;;;;;;4996122;28;20037;-76
2023/05/20 04:10:32;;;;;;;13.40;4.30;;;;;;;;;;4994018;28;20965;-76
2023/05/20 04:12:57;;;;;;;19.13;5.07;;;;;;;;;;4995979;28;20034;-76
2023/05/20 04:15:23;;;;;;;58.92;7.05;;;;;;;;;;4995628;28;20084;-77
2023/05/20 04:17:51;;;;;;;23.95;5.80;;;;;;;;;;4994427;28;20093;-77
2023/05/20 04:20:17;;;;;;;39.35;5.25;;;;;;;;;;4995479;28;20085;-76
2023/05/20 04:22:43;;;;;;;22.75;4.72;;;;;;;;;;4995589;28;20093;-77
2023/05/20 04:25:08;;;;;;;23.58;4.80;;;;;;;;;;4993947;28;20038;-77
2023/05/20 04:27:34;;;;;;;22.73;5.35;;;;;;;;;;4995834;28;20084;-76
2023/05/20 04:30:01;;;;;;;21.70;5.13;;;;;;;;;;4995112;28;20045;-76
2023/05/20 04:32:26;;;;;;;54.05;6.05;;;;;;;;;;4993714;28;20026;-76
2023/05/20 04:34:53;;;;;;;35.25;5.25;;;;;;;;;;4994849;28;20038;-77
2023/05/20 04:37:18;;;;;;;12.98;4.95;;;;;;;;;;4993087;28;20081;-76
2023/05/20 04:39:47;;;;;;;10.73;4.72;;;;;;;;;;4983073;28;20105;-76
2023/05/20 04:42:12;;;;;;;19.38;5.35;;;;;;;;;;4995347;28;20386;-77
2023/05/20 04:44:38;;;;;;;32.70;5.10;;;;;;;;;;4992193;28;20034;-77
2023/05/20 04:47:06;;;;;;;23.20;5.05;;;;;;;;;;4995237;28;20093;-77
2023/05/20 04:49:32;;;;;;;28.20;5.55;;;;;;;;;;4991371;28;20112;-77
2023/05/20 04:51:58;;;;;;;18.85;4.78;;;;;;;;;;4994877;28;20085;-76
2023/05/20 04:54:24;;;;;;;13.40;4.10;;;;;;;;;;4994727;28;20038;-77
2023/05/20 04:56:49;;;;;;;30.10;5.10;;;;;;;;;;4994762;28;20035;-77
2023/05/20 04:59:15;;;;;;;21.42;5.22;;;;;;;;;;4992953;28;20056;-77
2023/05/20 05:01:41;;;;;;;12.35;4.20;;;;;;;;;;4990824;28;20043;-76
2023/05/20 05:04:06;;;;;;;20.35;4.75;;;;;;;;;;4988090;28;20048;-77
2023/05/20 05:06:32;;;;;;;29.67;4.85;;;;;;;;;;4994418;28;20372;-77
2023/05/20 05:08:57;;;;;;;58.22;5.53;;;;;;;;;;4994604;28;20130;-77
2023/05/20 05:11:22;;;;;;;12.25;4.57;;;;;;;;;;4994254;28;20034;-77
2023/05/20 05:13:48;;;;;;;18.42;4.57;;;;;;;;;;4994757;28;20108;-77
2023/05/20 05:16:13;;;;;;;29.08;4.50;;;;;;;;;;4992457;28;20367;-77
2023/05/20 05:18:39;;;;;;;17.00;4.63;;;;;;;;;;4994269;28;20034;-76
2023/05/20 05:21:05;;;;;;;221.68;14.40;;;;;;;;;;4994271;28;20027;-76
2023/05/20 05:23:31;;;;;;;96.22;7.68;;;;;;;;;;4993284;28;20038;-77
2023/05/20 05:25:56;;;;;;;643.55;38.35;;;;;;;;;;4992906;28;20038;-76
2023/05/20 05:28:22;;;;;;;572.75;35.38;;;;;;;;;;4993227;28;20486;-77
2023/05/20 05:30:48;;;;;;;889.47;48.05;;;;;;;;;;4989568;28;20038;-77
2023/05/20 05:33:14;;;;;;;463.30;25.38;;;;;;;;;;4994052;28;20470;-76
2023/05/20 05:35:40;;;;;;;1492.05;73.50;;;;;;;;;;4993140;28;20038;-76
2023/05/20 05:38:06;;;;;;;687.85;34.60;;;;;;;;;;4994275;28;20038;-77
2023/05/20 05:40:31;;;;;;;695.75;34.10;;;;;;;;;;4993667;28;20109;-76
2023/05/20 05:42:56;;;;;;;1357.47;65.38;;;;;;;;;;4993998;28;20114;-76
2023/05/20 05:45:22;;;;;;;1029.55;49.63;;;;;;;;;;4993525;28;20037;-77
2023/05/20 05:47:47;;;;;;;289.00;16.67;;;;;;;;;;4993525;28;20034;-77
2023/05/20 05:50:12;;;;;;;204.23;11.02;;;;;;;;;;4993943;28;20045;-76
2023/05/20 05:52:38;;;;;;;169.50;10.77;;;;;;;;;;4994088;28;20053;-76
2023/05/20 05:55:03;;;;;;;8.57;4.30;;;;;;;;;;4986680;28;20422;-76
2023/05/20 05:57:29;;;;;;;9.18;4.30;;;;;;;;;;4988735;28;20065;-77
2023/05/20 05:59:54;;;;;;;6.18;3.80;;;;;;;;;;4993780;28;20410;-77
2023/05/20 06:02:21;;;;;;;7.05;3.92;;;;;;;;;;4993358;28;20034;-77
2023/05/20 06:04:46;;;;;;;8.73;4.03;;;;;;;;;;4993476;28;20161;-76
2023/05/20 06:07:11;;;;;;;18.45;4.55;;;;;;;;;;4992791;28;20129;-76
2023/05/20 06:09:37;;;;;;;10.38;4.50;;;;;;;;;;4993345;28;20042;-76
2023/05/20 06:12:03;;;;;;;10.52;4.85;;;;;;;;;;4992481;28;20033;-76
2023/05/20 06:14:28;;;;;;;9.25;4.60;;;;;;;;;;4993592;28;20038;-77
2023/05/20 06:16:54;;;;;;;8.50;4.07;;;;;;;;;;4991010;28;20034;-77
2023/05/20 06:19:19;;;;;;;8.25;4.00;;;;;;;;;;4991438;28;20061;-75
2023/05/20 06:21:45;;;;;;;8.82;4.03;;;;;;;;;;4993514;28;20112;-76
2023/05/20 06:24:10;;;;;;;8.13;3.70;;;;;;;;;;4993615;28;20135;-76
2023/05/20 06:26:35;;;;;;;11.30;4.03;;;;;;;;;;4991735;28;20130;-76
2023/05/20 06:29:02;;;;;;;8.02;4.20;;;;;;;;;;4992673;28;20046;-75
2023/05/20 06:31:28;;;;;;;6.80;3.80;;;;;;;;;;4993416;28;20157;-77
2023/05/20 06:33:54;;;;;;;10.07;4.10;;;;;;;;;;4993123;28;20034;-75
2023/05/20 06:36:20;;;;;;;6.88;3.53;;;;;;;;;;5005740;28;20038;-74
2023/05/20 06:38:45;;;;;;;8.18;3.80;;;;;;;;;;4993682;28;20030;-74
2023/05/20 06:41:11;;;;;;;11.23;4.03;;;;;;;;;;4993604;28;20038;-74
2023/05/20 06:43:36;;;;;;;9.90;4.00;;;;;;;;;;4993400;28;20042;-74
2023/05/20 06:46:02;;;;;;;8.18;3.78;;;;;;;;;;4993638;28;20030;-75
2023/05/20 06:48:27;;;;;;;11.77;4.00;;;;;;;;;;4995497;28;20046;-74
2023/05/20 06:50:53;;;;;;;11.55;3.70;;;;;;;;;;4993479;28;20129;-75
2023/05/20 06:53:18;;;;;;;7.97;3.30;;;;;;;;;;4996436;28;20042;-74
2023/05/20 06:55:43;;;;;;;8.52;3.60;;;;;;;;;;4992160;28;20459;-74
2023/05/20 06:58:09;;;;;;;10.85;3.40;;;;;;;;;;4993137;28;20431;-74
2023/05/20 07:00:34;;;;;;;12.48;3.70;;;;;;;;;;4990966;28;20034;-77
2023/05/20 07:03:00;;;;;;;9.52;3.45;;;;;;;;;;4995670;28;20029;-77
2023/05/20 07:05:27;;;;;;;12.05;3.55;;;;;;;;;;4997137;28;20046;-76
2023/05/20 07:07:53;;;;;;;7.47;3.20;;;;;;;;;;4996757;28;20034;-76
2023/05/20 07:10:18;;;;;;;10.85;3.60;;;;;;;;;;4996126;28;20029;-76
2023/05/20 07:12:44;;;;;;;7.82;3.25;;;;;;;;;;4996118;28;20472;-77
2023/05/20 07:15:10;;;;;;;9.85;3.25;;;;;;;;;;4995679;28;20109;-77
2023/05/20 07:17:35;;;;;;;7.38;3.03;;;;;;;;;;4996518;28;20517;-78
2023/05/20 07:20:01;;;;;;;10.70;3.78;;;;;;;;;;4986958;28;20038;-74
2023/05/20 07:22:26;;;;;;;9.88;3.90;;;;;;;;;;4994534;28;20026;-78
2023/05/20 07:24:52;;;;;;;7.72;3.00;;;;;;;;;;4992160;28;20085;-78
2023/05/20 07:27:17;;;;;;;8.18;3.15;;;;;;;;;;4992988;28;20121;-77
2023/05/20 07:29:43;;;;;;;7.32;3.35;;;;;;;;;;4993891;28;20041;-77
2023/05/20 07:32:09;;;;;;;9.23;3.38;;;;;;;;;;4994412;28;20438;-78
2023/05/20 07:34:34;;;;;;;9.35;3.20;;;;;;;;;;4990911;28;20390;-75
2023/05/20 07:37:00;;;;;;;7.90;3.15;;;;;;;;;;4995822;28;20030;-77
2023/05/20 07:39:25;;;;;;;10.45;3.33;;;;;;;;;;4976011;28;20035;-78
2023/05/20 07:41:51;;;;;;;8.02;3.30;;;;;;;;;;4996232;28;20081;-75
2023/05/20 07:44:17;;;;;;;7.15;3.17;;;;;;;;;;4995903;28;20422;-74
2023/05/20 07:46:43;;;;;;;8.07;3.03;;;;;;;;;;4996015;28;20038;-75
2023/05/20 07:49:09;;;;;;;9.20;3.42;;;;;;;;;;4994497;28;20034;-75
2023/05/20 07:51:35;;;;;;;17.20;3.45;;;;;;;;;;4995777;28;20031;-75
2023/05/20 07:54:00;;;;;;;13.05;3.65;;;;;;;;;;4996165;28;20034;-75
2023/05/20 07:56:25;;;;;;;8.68;3.10;;;;;;;;;;4995928;28;20038;-76
2023/05/20 07:58:52;;;;;;;9.52;3.50;;;;;;;;;;4996147;28;20502;-74
2023/05/20 08:01:20;;;;;;;9.77;3.22;;;;;;;;;;4994276;28;20423;-74
2023/05/20 08:03:45;;;;;;;9.05;3.15;;;;;;;;;;4995945;28;20042;-75
2023/05/20 08:06:11;;;;;;;7.88;3.65;;;;;;;;;;4993118;28;20403;-75
2023/05/20 08:08:36;;;;;;;9.20;3.33;;;;;;;;;;4995998;28;20108;-75
2023/05/20 08:11:02;;;;;;;7.38;2.92;;;;;;;;;;4992404;28;20031;-74
2023/05/20 08:13:28;;;;;;;8.95;2.97;;;;;;;;;;4995781;28;20027;-75
2023/05/20 08:15:53;;;;;;;5.20;2.42;;;;;;;;;;4995828;28;20133;-75
2023/05/20 08:18:19;;;;;;;11.40;3.20;;;;;;;;;;4995663;28;20402;-74
2023/05/20 08:20:44;;;;;;;5.57;3.00;;;;;;;;;;4973266;28;20081;-74
2023/05/20 08:23:10;;;;;;;6.63;2.95;;;;;;;;;;4985075;28;20375;-75
2023/05/20 08:25:36;;;;;;;7.55;3.17;;;;;;;;;;4991565;28;20034;-75
2023/05/20 08:28:04;;;;;;;6.85;2.80;;;;;;;;;;4990984;28;20470;-74
2023/05/20 08:30:29;;;;;;;9.85;2.88;;;;;;;;;;4990058;28;20788;-74
2023/05/20 08:32:55;;;;;;;8.93;2.72;;;;;;;;;;4991096;28;20113;-74
2023/05/20 08:35:22;;;;;;;7.78;2.83;;;;;;;;;;4993281;28;20030;-74
2023/05/20 08:37:47;;;;;;;5.97;2.70;;;;;;;;;;4994168;28;20049;-74
2023/05/20 08:40:13;;;;;;;8.95;3.20;;;;;;;;;;4993784;28;20034;-75
2023/05/20 08:42:44;;;;;;;7.88;2.70;;;;;;;;;;4993974;28;20038;-74
2023/05/20 08:45:11;;;;;;;7.40;3.08;;;;;;;;;;4992966;28;20030;-74
2023/05/20 08:47:43;;;;;;;7.47;3.22;;;;;;;;;;4992023;28;20398;-74
2023/05/20 08:50:10;;;;;;;5.75;2.75;;;;;;;;;;4993413;28;20398;-74
2023/05/20 08:52:37;;;;;;;7.28;3.45;;;;;;;;;;4979466;28;20050;-74
2023/05/20 08:55:04;;;;;;;6.10;2.80;;;;;;;;;;4988727;28;20034;-75
2023/05/20 08:57:29;;;;;;;6.32;2.60;;;;;;;;;;4987362;28;20475;-75
2023/05/20 08:59:56;;;;;;;7.50;2.88;;;;;;;;;;4988756;28;20042;-74
2023/05/20 09:02:22;;;;;;;6.03;2.67;;;;;;;;;;4985016;28;20042;-74
2023/05/20 09:04:47;;;;;;;5.85;2.90;;;;;;;;;;4984148;28;20184;-74
2023/05/20 09:07:12;;;;;;;5.80;2.38;;;;;;;;;;4988864;28;20044;-75
2023/05/20 09:09:38;;;;;;;6.32;2.45;;;;;;;;;;4992868;28;20054;-75
2023/05/20 09:12:03;;;;;;;6.30;2.55;;;;;;;;;;4992558;28;20041;-74
2023/05/20 09:14:30;;;;;;;6.32;2.60;;;;;;;;;;4990867;28;20038;-74
2023/05/20 09:16:55;;;;;;;5.78;2.45;;;;;;;;;;4993192;28;20065;-74
2023/05/20 09:19:22;;;;;;;5.70;2.50;;;;;;;;;;4992244;28;20097;-74
2023/05/20 09:21:47;;;;;;;12.05;2.75;;;;;;;;;;4987742;28;20042;-74
2023/05/20 09:24:13;;;;;;;4.32;2.33;;;;;;;;;;4993004;28;20022;-73
2023/05/20 09:26:38;;;;;;;6.35;2.47;;;;;;;;;;4993285;28;20041;-74
2023/05/20 09:29:04;;;;;;;5.32;2.40;;;;;;;;;;4993488;28;20046;-74
2023/05/20 09:31:32;;;;;;;5.85;2.60;;;;;;;;;;4991577;28;20080;-74
2023/05/20 09:33:59;;;;;;;4.80;2.63;;;;;;;;;;4993350;28;20108;-74
2023/05/20 09:36:27;;;;;;;5.18;3.08;;;;;;;;;;4992301;28;20042;-74
2023/05/20 09:38:53;;;;;;;9.32;5.05;;;;;;;;;;4991940;28;20462;-74
2023/05/20 09:41:22;;;;;;;6.35;2.75;;;;;;;;;;4993086;28;20041;-74
2023/05/20 09:43:49;;;;;;;5.05;2.33;;;;;;;;;;4992787;28;20049;-74
2023/05/20 09:46:15;;;;;;;6.22;2.13;;;;;;;;;;4991768;28;20051;-74
2023/05/20 09:48:41;;;;;;;5.72;2.28;;;;;;;;;;4991595;28;20045;-74
2023/05/20 09:51:06;;;;;;;7.75;2.80;;;;;;;;;;4993293;28;20041;-74
2023/05/20 09:53:32;;;;;;;6.07;2.47;;;;;;;;;;4992701;28;20062;-74
2023/05/20 09:55:57;;;;;;;5.97;2.40;;;;;;;;;;4992674;28;20034;-74
2023/05/20 09:58:24;;;;;;;6.80;2.50;;;;;;;;;;4991422;28;20064;-74
2023/05/20 10:00:49;;;;;;;5.30;2.45;;;;;;;;;;4992697;28;20080;-74
2023/05/20 10:03:15;;;;;;;4.82;2.50;;;;;;;;;;4992629;28;20061;-74
2023/05/20 10:05:48;;;;;;;7.43;2.65;;;;;;;;;;4992705;28;20077;-75
2023/05/20 10:08:31;;;;;;;4.35;2.28;;;;;;;;;;4992871;28;20106;-74
2023/05/20 10:11:24;;;;;;;5.40;2.80;;;;;;;;;;4992648;28;20070;-74
2023/05/20 10:14:01;;;;;;;5.38;2.20;;;;;;;;;;4992596;28;20053;-74
2023/05/20 10:17:07;;;;;;;6.97;2.65;;;;;;;;;;4983403;28;20038;-74
2023/05/20 10:19:33;;;;;;;8.80;2.80;;;;;;;;;;4982142;28;20081;-74
2023/05/20 10:22:00;;;;;;;5.60;2.60;;;;;;;;;;4990436;28;20046;-74
2023/05/20 10:24:34;;;;;;;8.48;2.92;;;;;;;;;;4990760;28;20026;-74
2023/05/20 10:27:06;;;;;;;5.88;2.58;;;;;;;;;;4991484;28;20165;-74
2023/05/20 10:29:51;;;;;;;8.70;2.70;;;;;;;;;;4992562;28;20038;-74
2023/05/20 10:32:27;;;;;;;6.25;2.53;;;;;;;;;;4992189;28;20494;-74
2023/05/20 10:34:58;;;;;;;5.63;2.45;;;;;;;;;;4980231;28;20466;-74
2023/05/20 10:37:28;;;;;;;7.05;2.72;;;;;;;;;;4995517;28;20042;-74
2023/05/20 10:40:09;;;;;;;9.45;2.78;;;;;;;;;;4995120;28;20045;-74
2023/05/20 10:42:34;;;;;;;7.20;2.75;;;;;;;;;;4989198;28;20125;-74
2023/05/20 10:45:00;;;;;;;5.35;2.60;;;;;;;;;;4994403;28;20066;-72
2023/05/20 10:47:25;;;;;;;8.00;3.10;;;;;;;;;;4996026;28;20113;-76
2023/05/20 10:49:51;;;;;;;7.57;2.10;;;;;;;;;;4996334;28;20041;-76
2023/05/20 10:52:17;;;;;;;6.95;2.20;;;;;;;;;;4994892;28;20030;-76
2023/05/20 10:54:46;;;;;;;6.65;2.20;;;;;;;;;;4995888;28;20038;-75
2023/05/20 10:57:12;;;;;;;7.82;2.20;;;;;;;;;;4989524;28;20061;-74
2023/05/20 10:59:37;;;;;;;5.93;2.15;;;;;;;;;;4994937;28;20038;-73
2023/05/20 11:02:03;;;;;;;5.72;2.40;;;;;;;;;;4994759;28;20070;-75
2023/05/20 11:04:29;;;;;;;6.57;2.50;;;;;;;;;;4996047;28;20039;-75
2023/05/20 11:06:55;;;;;;;6.53;2.58;;;;;;;;;;4994391;28;20041;-76
2023/05/20 11:09:21;;;;;;;8.20;2.47;;;;;;;;;;4996058;28;20046;-75
2023/05/20 11:11:47;;;;;;;4.97;2.22;;;;;;;;;;4994803;28;20478;-75
2023/05/20 11:14:13;;;;;;;3.80;1.98;;;;;;;;;;4996071;28;20038;-75
2023/05/20 11:16:40;;;;;;;5.43;2.03;;;;;;;;;;4993013;28;20042;-75
2023/05/20 11:19:14;;;;;;;9.48;2.08;;;;;;;;;;4995520;28;20537;-75
2023/05/20 11:21:46;;;;;;;6.72;2.40;;;;;;;;;;4994190;28;20548;-75
2023/05/20 11:24:12;;;;;;;7.05;2.08;;;;;;;;;;4995602;28;20034;-75
2023/05/20 11:26:38;;;;;;;4.85;2.55;;;;;;;;;;4993976;28;20811;-75
2023/05/20 11:29:04;;;;;;;9.85;2.50;;;;;;;;;;4995705;28;20049;-75
2023/05/20 11:31:32;;;;;;;8.15;2.63;;;;;;;;;;4994206;28;20038;-75
2023/05/20 11:34:00;;;;;;;5.32;2.70;;;;;;;;;;4994491;28;20035;-75
2023/05/20 11:36:27;;;;;;;6.63;2.63;;;;;;;;;;4993703;28;20046;-75
2023/05/20 11:38:53;;;;;;;7.88;2.17;;;;;;;;;;4995358;28;20043;-74
2023/05/20 11:41:24;;;;;;;6.70;2.47;;;;;;;;;;4995331;28;20040;-74
2023/05/20 11:43:55;;;;;;;6.35;1.98;;;;;;;;;;4994848;28;20478;-74
2023/05/20 11:46:21;;;;;;;8.68;2.50;;;;;;;;;;4992714;28;20065;-73
2023/05/20 11:48:53;;;;;;;6.03;2.60;;;;;;;;;;4995446;28;20062;-74
2023/05/20 11:51:29;;;;;;;5.47;2.30;;;;;;;;;;4993927;28;20045;-74
2023/05/20 11:54:01;;;;;;;7.65;2.58;;;;;;;;;;4994962;28;20038;-74
2023/05/20 11:56:35;;;;;;;4.63;1.70;;;;;;;;;;4993366;28;20062;-74
2023/05/20 11:59:01;;;;;;;10.23;2.63;;;;;;;;;;4993094;28;20057;-74
2023/05/20 12:01:29;;;;;;;6.05;1.88;;;;;;;;;;4993132;28;20026;-74
2023/05/20 12:03:55;;;;;;;9.60;2.40;;;;;;;;;;4987142;28;20062;-74
2023/05/20 12:06:20;;;;;;;5.15;2.38;;;;;;;;;;4993631;28;20038;-75
2023/05/20 12:08:46;;;;;;;8.27;2.35;;;;;;;;;;4993368;28;20057;-74
2023/05/20 12:11:12;;;;;;;6.97;2.30;;;;;;;;;;4994174;28;20048;-74
2023/05/20 12:13:37;;;;;;;4.10;1.90;;;;;;;;;;4994611;28;20112;-74
2023/05/20 12:16:04;;;;;;;5.38;2.22;;;;;;;;;;4993664;28;20041;-74
2023/05/20 12:18:31;;;;;;;4.70;2.17;;;;;;;;;;4984827;28;20406;-74
2023/05/20 12:20:57;;;;;;;5.18;2.00;;;;;;;;;;4993377;28;20196;-74
2023/05/20 12:23:23;;;;;;;8.70;2.83;;;;;;;;;;4994780;28;20506;-74
2023/05/20 12:25:48;;;;;;;9.40;2.50;;;;;;;;;;4983055;28;20046;-74
2023/05/20 12:28:15;;;;;;;9.13;2.05;;;;;;;;;;4990786;28;20382;-74
2023/05/20 12:30:40;;;;;;;5.82;2.58;;;;;;;;;;4989451;28;20093;-74
2023/05/20 12:33:06;;;;;;;4.03;2.08;;;;;;;;;;4992435;28;20034;-73
2023/05/20 12:35:39;;;;;;;3.83;1.90;;;;;;;;;;4991538;28;20038;-74
2023/05/20 12:38:05;;;;;;;;;;;;;;;;;;4991028;28;20069;-76
2023/05/20 12:40:31;;;;;;;6.97;2.05;;;;;;;;;;4990582;28;20040;-74
2023/05/20 12:42:57;;;;;;;5.90;2.03;;;;;;;;;;4992345;28;20498;-74
2023/05/20 12:45:23;;;;;;;5.93;2.00;;;;;;;;;;4992326;28;20422;-75
2023/05/20 12:47:48;;;;;;;6.70;2.05;;;;;;;;;;4992397;28;20046;-74
2023/05/20 12:50:14;;;;;;;6.45;2.53;;;;;;;;;;4993077;28;20055;-74
2023/05/20 12:52:40;;;;;;;5.75;1.95;;;;;;;;;;4986439;28;20528;-74
2023/05/20 12:55:12;;;;;;;6.75;2.30;;;;;;;;;;5000468;28;20030;-74
2023/05/20 12:57:38;;;;;;;6.90;2.38;;;;;;;;;;4992053;28;20504;-74
2023/05/20 13:00:05;;;;;;;4.07;1.83;;;;;;;;;;4993469;28;20430;-74
2023/05/20 13:02:30;;;;;;;4.80;1.90;;;;;;;;;;4993955;28;20031;-74
2023/05/20 13:04:56;;;;;;;4.97;2.15;;;;;;;;;;4992578;28;20129;-74
2023/05/20 13:07:21;;;;;;;4.82;2.10;;;;;;;;;;4993617;28;20092;-74
2023/05/20 13:09:46;;;;;;;6.25;2.03;;;;;;;;;;4993452;28;20683;-74
2023/05/20 13:12:12;;;;;;;6.10;2.28;;;;;;;;;;4993444;28;20038;-74
2023/05/20 13:14:37;;;;;;;5.15;2.10;;;;;;;;;;4992549;28;20593;-74
2023/05/20 13:17:03;;;;;;;6.15;2.25;;;;;;;;;;4993713;28;20030;-74
2023/05/20 13:19:28;;;;;;;5.53;2.03;;;;;;;;;;4993301;28;20077;-74
2023/05/20 13:21:54;;;;;;;6.57;2.05;;;;;;;;;;4992368;28;20403;-74
2023/05/20 13:24:19;;;;;;;4.90;2.20;;;;;;;;;;4993618;28;20030;-74
2023/05/20 13:26:45;;;;;;;3.53;1.48;;;;;;;;;;4993246;28;20371;-73
2023/05/20 13:29:11;;;;;;;4.30;2.08;;;;;;;;;;4991717;28;20033;-74
2023/05/20 13:31:37;;;;;;;4.57;2.33;;;;;;;;;;4992732;28;20526;-74
2023/05/20 13:34:02;;;;;;;7.43;2.10;;;;;;;;;;4991990;28;20117;-74
2023/05/20 13:36:28;;;;;;;5.32;2.00;;;;;;;;;;4994050;28;20042;-74
2023/05/20 13:38:53;;;;;;;3.80;2.22;;;;;;;;;;4995311;28;20034;-74
2023/05/20 13:41:18;;;;;;;8.07;2.40;;;;;;;;;;4995963;28;20038;-74
2023/05/20 13:43:44;;;;;;;5.05;2.25;;;;;;;;;;4994303;28;20038;-74
2023/05/20 13:46:10;;;;;;;4.53;1.90;;;;;;;;;;4998489;28;20085;-74
2023/05/20 13:48:35;;;;;;;5.63;2.15;;;;;;;;;;4996350;28;20034;-74
2023/05/20 13:51:00;;;;;;;4.05;1.98;;;;;;;;;;4998984;28;20533;-74
2023/05/20 13:53:27;;;;;;;4.20;2.42;;;;;;;;;;5000274;28;20390;-75
2023/05/20 13:55:52;;;;;;;4.18;2.05;;;;;;;;;;4997563;28;20038;-74
2023/05/20 13:58:17;;;;;;;7.40;2.58;;;;;;;;;;4993682;28;20491;-75
2023/05/20 14:00:43;;;;;;;7.28;2.10;;;;;;;;;;4996042;28;20117;-74
2023/05/20 14:03:09;;;;;;;5.18;2.00;;;;;;;;;;4996589;28;20992;-75
2023/05/20 14:05:34;;;;;;;5.22;1.80;;;;;;;;;;4988636;28;20026;-73
2023/05/20 14:08:01;;;;;;;3.45;1.83;;;;;;;;;;4981837;28;20038;-74
2023/05/20 14:10:30;;;;;;;4.30;2.17;;;;;;;;;;4991643;28;20407;-73
2023/05/20 14:12:57;;;;;;;4.43;2.45;;;;;;;;;;4982308;28;20038;-73
2023/05/20 14:15:22;;;;;;;7.57;2.95;;;;;;;;;;4989274;28;20038;-74
2023/05/20 14:17:47;;;;;;;7.40;2.13;;;;;;;;;;4988693;28;20047;-74
2023/05/20 14:20:13;;;;;;;5.15;2.33;;;;;;;;;;4989411;28;20038;-75
2023/05/20 14:22:39;;;;;;;5.55;1.83;;;;;;;;;;4989117;28;20042;-74
2023/05/20 14:25:05;;;;;;;3.90;1.60;;;;;;;;;;4994547;28;20030;-74
2023/05/20 14:27:31;;;;;;;4.80;2.00;;;;;;;;;;4998902;28;20031;-74
2023/05/20 14:29:56;;;;;;;4.25;2.00;;;;;;;;;;4989587;28;20042;-74
2023/05/20 14:32:21;;;;;;;6.13;2.20;;;;;;;;;;5001821;28;20394;-74